createdAt,value
2022-09-13T00:00:00.926Z,12.51
2022-09-13T00:03:03.366Z,12.45
2022-09-13T00:06:18.706Z,12.35
2022-09-13T00:09:20.801Z,12.34
2022-09-13T00:12:23.188Z,12.24
2022-09-13T00:15:25.275Z,12.20
2022-09-13T00:18:27.678Z,12.25
2022-09-13T00:21:30.040Z,12.27
2022-09-13T00:24:33.970Z,12.25
2022-09-13T00:27:37.383Z,12.19
2022-09-13T00:30:39.747Z,12.01
2022-09-13T00:33:41.827Z,12.00
2022-09-13T00:36:44.268Z,12.06
2022-09-13T00:39:49.689Z,11.96
2022-09-13T00:42:52.276Z,11.95
2022-09-13T00:45:54.490Z,11.83
2022-09-13T00:49:10.418Z,11.80
2022-09-13T00:52:16.112Z,11.78
2022-09-13T00:55:28.977Z,11.71
2022-09-13T00:58:37.055Z,11.66
2022-09-13T01:01:52.759Z,11.66
2022-09-13T01:04:55.623Z,11.62
2022-09-13T01:07:59.959Z,11.64
2022-09-13T01:11:05.694Z,11.63
2022-09-13T01:14:09.402Z,11.59
2022-09-13T01:17:11.780Z,11.52
2022-09-13T01:20:14.766Z,11.50
2022-09-13T01:23:53.917Z,11.39
2022-09-13T01:27:05.210Z,11.36
2022-09-13T01:30:13.081Z,11.17
2022-09-13T01:33:32.989Z,11.10
2022-09-13T01:36:37.856Z,11.16
2022-09-13T01:39:49.488Z,11.11
2022-09-13T01:43:12.802Z,11.07
2022-09-13T01:46:22.778Z,11.09
2022-09-13T01:49:30.998Z,11.08
2022-09-13T01:52:43.209Z,10.93
2022-09-13T01:55:52.858Z,10.89
2022-09-13T01:59:02.357Z,10.89
2022-09-13T02:02:15.555Z,10.81
2022-09-13T02:05:41.126Z,10.77
2022-09-13T02:08:57.788Z,10.86
2022-09-13T02:12:11.134Z,10.91
2022-09-13T02:15:18.550Z,10.89
2022-09-13T02:18:37.237Z,10.86
2022-09-13T02:21:44.636Z,10.80
2022-09-13T02:24:53.049Z,10.72
2022-09-13T02:28:01.703Z,10.69
2022-09-13T02:31:07.843Z,10.66
2022-09-13T02:34:18.650Z,10.75
2022-09-13T02:37:24.571Z,10.73
2022-09-13T02:40:35.590Z,10.71
2022-09-13T02:43:42.609Z,10.70
2022-09-13T02:47:20.233Z,10.70
2022-09-13T02:50:46.071Z,10.65
2022-09-13T02:53:56.017Z,10.57
2022-09-13T02:57:15.214Z,10.46
2022-09-13T03:00:17.598Z,10.46
2022-09-13T03:03:20.855Z,10.49
2022-09-13T03:06:28.687Z,10.49
2022-09-13T03:09:32.202Z,10.48
2022-09-13T03:13:08.516Z,10.45
2022-09-13T03:16:35.013Z,10.42
2022-09-13T03:19:52.628Z,10.42
2022-09-13T03:23:00.654Z,10.40
2022-09-13T03:26:02.617Z,10.33
2022-09-13T03:29:25.560Z,10.30
2022-09-13T03:32:45.783Z,10.25
2022-09-13T03:35:59.276Z,10.25
2022-09-13T03:39:14.913Z,10.19
2022-09-13T03:42:44.791Z,10.20
2022-09-13T03:45:53.567Z,10.21
2022-09-13T03:48:58.079Z,9.96
2022-09-13T03:52:00.825Z,10.02
2022-09-13T03:55:03.497Z,10.07
2022-09-13T03:58:05.972Z,10.04
2022-09-13T04:01:10.267Z,9.99
2022-09-13T04:04:12.623Z,9.96
2022-09-13T04:07:20.566Z,9.93
2022-09-13T04:10:24.310Z,9.98
2022-09-13T04:13:26.874Z,9.99
2022-09-13T04:16:29.260Z,9.92
2022-09-13T04:19:31.820Z,10.00
2022-09-13T04:22:34.138Z,9.96
2022-09-13T04:25:39.049Z,10.00
2022-09-13T04:28:41.459Z,9.99
2022-09-13T04:31:44.342Z,9.89
2022-09-13T04:34:47.666Z,9.94
2022-09-13T04:37:49.859Z,9.83
2022-09-13T04:40:54.281Z,9.89
2022-09-13T04:43:56.345Z,9.99
2022-09-13T04:46:58.660Z,10.03
2022-09-13T04:50:00.708Z,9.99
2022-09-13T04:53:03.185Z,10.01
2022-09-13T04:56:05.440Z,10.02
2022-09-13T04:59:07.813Z,9.97
2022-09-13T05:02:10.030Z,9.87
2022-09-13T05:05:12.379Z,9.95
2022-09-13T05:08:14.630Z,9.95
2022-09-13T05:11:16.947Z,9.93
2022-09-13T05:14:19.050Z,9.98
2022-09-13T05:17:21.897Z,10.01
2022-09-13T05:20:24.134Z,10.09
2022-09-13T05:23:28.502Z,10.15
2022-09-13T05:26:31.368Z,10.28
2022-09-13T05:29:33.797Z,10.23
2022-09-13T05:32:35.854Z,10.28
2022-09-13T05:35:40.982Z,10.36
2022-09-13T05:38:43.031Z,10.43
2022-09-13T05:41:46.061Z,10.46
2022-09-13T05:44:48.153Z,10.51
2022-09-13T05:47:51.854Z,10.54
2022-09-13T05:50:58.262Z,10.63
2022-09-13T05:54:00.989Z,10.73
2022-09-13T05:57:03.489Z,10.74
2022-09-13T06:00:06.381Z,10.73
2022-09-13T06:03:14.346Z,10.77
2022-09-13T06:06:17.586Z,10.87
2022-09-13T06:09:20.090Z,10.93
2022-09-13T06:12:22.418Z,11.02
2022-09-13T06:15:24.489Z,11.09
2022-09-13T06:18:27.583Z,11.27
2022-09-13T06:21:29.674Z,11.40
2022-09-13T06:24:32.177Z,11.52
2022-09-13T06:27:34.276Z,11.63
2022-09-13T06:30:36.599Z,11.76
2022-09-13T06:33:41.297Z,11.88
2022-09-13T06:36:43.832Z,12.01
2022-09-13T06:39:45.993Z,12.14
2022-09-13T06:42:48.729Z,12.24
2022-09-13T06:45:50.914Z,12.38
2022-09-13T06:48:53.957Z,12.47
2022-09-13T06:51:56.062Z,12.59
2022-09-13T06:54:58.854Z,12.74
2022-09-13T06:58:00.928Z,12.92
2022-09-13T07:01:16.266Z,13.04
2022-09-13T07:04:22.331Z,13.18
2022-09-13T07:07:24.679Z,13.26
2022-09-13T07:10:26.823Z,13.36
2022-09-13T07:13:29.260Z,13.48
2022-09-13T07:16:33.247Z,13.62
2022-09-13T07:19:35.637Z,13.72
2022-09-13T07:22:37.713Z,13.88
2022-09-13T07:25:40.041Z,14.01
2022-09-13T07:28:46.888Z,14.18
2022-09-13T07:31:54.348Z,14.65
2022-09-13T07:34:56.455Z,15.09
2022-09-13T07:37:58.758Z,15.40
2022-09-13T07:41:01.060Z,15.71
2022-09-13T07:44:05.078Z,16.03
2022-09-13T07:47:07.141Z,16.40
2022-09-13T07:50:09.946Z,16.71
2022-09-13T07:53:11.989Z,17.18
2022-09-13T07:56:19.922Z,17.72
2022-09-13T07:59:21.999Z,18.34
2022-09-13T08:02:24.434Z,19.02
2022-09-13T08:05:26.901Z,19.40
2022-09-13T08:08:30.235Z,20.05
2022-09-13T08:11:38.414Z,20.31
2022-09-13T08:14:40.496Z,20.77
2022-09-13T08:17:42.829Z,21.10
2022-09-13T08:20:45.212Z,21.60
2022-09-13T08:23:48.189Z,21.54
2022-09-13T08:26:51.925Z,21.18
2022-09-13T08:29:54.360Z,21.07
2022-09-13T08:32:56.444Z,21.71
2022-09-13T08:35:59.122Z,22.26
2022-09-13T08:39:04.391Z,22.43
2022-09-13T08:42:18.869Z,22.57
2022-09-13T08:45:23.110Z,22.76
2022-09-13T08:48:34.687Z,22.83
2022-09-13T08:51:42.413Z,22.19
2022-09-13T08:54:44.935Z,22.43
2022-09-13T08:58:03.953Z,22.52
2022-09-13T09:01:14.095Z,22.86
2022-09-13T09:04:28.941Z,23.02
2022-09-13T09:07:35.217Z,23.48
2022-09-13T09:10:42.267Z,23.70
2022-09-13T09:13:54.910Z,23.59
2022-09-13T09:17:00.204Z,23.46
2022-09-13T09:20:19.372Z,23.38
2022-09-13T09:23:26.221Z,23.63
2022-09-13T09:26:30.683Z,23.62
2022-09-13T09:29:33.459Z,23.35
2022-09-13T09:33:05.085Z,23.49
2022-09-13T09:36:39.266Z,23.20
2022-09-13T09:39:42.449Z,23.28
2022-09-13T09:42:47.378Z,23.16
2022-09-13T09:45:53.856Z,23.31
2022-09-13T09:49:31.477Z,23.22
2022-09-13T09:52:50.675Z,23.14
2022-09-13T09:56:17.263Z,22.90
2022-09-13T09:59:28.486Z,22.75
2022-09-13T10:02:31.453Z,22.88
2022-09-13T10:05:35.234Z,23.03
2022-09-13T10:08:40.671Z,23.02
2022-09-13T10:11:59.941Z,22.86
2022-09-13T10:15:11.284Z,22.77
2022-09-13T10:18:44.365Z,22.68
2022-09-13T10:21:39.057Z,22.43
2022-09-13T10:24:41.726Z,22.21
2022-09-13T10:27:50.232Z,22.12
2022-09-13T10:30:56.732Z,22.06
2022-09-13T10:34:00.667Z,21.89
2022-09-13T10:37:21.537Z,22.02
2022-09-13T10:40:30.351Z,22.08
2022-09-13T10:43:34.616Z,22.41
2022-09-13T10:46:40.151Z,22.57
2022-09-13T10:49:54.987Z,22.59
2022-09-13T10:52:59.096Z,22.48
2022-09-13T10:56:02.674Z,22.38
2022-09-13T10:59:24.342Z,21.97
2022-09-13T11:02:42.214Z,21.99
2022-09-13T11:05:56.472Z,21.76
2022-09-13T11:09:16.968Z,21.90
2022-09-13T11:12:36.398Z,22.15
2022-09-13T11:15:45.023Z,22.11
2022-09-13T11:19:18.459Z,21.88
2022-09-13T11:22:23.694Z,21.86
2022-09-13T11:26:05.710Z,21.94
2022-09-13T11:29:26.485Z,22.04
2022-09-13T11:33:16.341Z,22.07
2022-09-13T11:36:47.423Z,21.98
2022-09-13T11:40:02.876Z,21.99
2022-09-13T11:43:47.340Z,22.01
2022-09-13T11:47:02.338Z,22.27
2022-09-13T11:50:23.136Z,22.06
2022-09-13T11:53:44.888Z,22.14
2022-09-13T11:56:54.287Z,22.27
2022-09-13T12:00:02.144Z,22.14
2022-09-13T12:03:16.084Z,22.19
2022-09-13T12:06:40.059Z,22.26
2022-09-13T12:09:53.817Z,22.36
2022-09-13T12:12:58.508Z,22.59
2022-09-13T12:16:08.700Z,22.65
2022-09-13T12:19:36.512Z,22.79
2022-09-13T12:22:39.209Z,22.87
2022-09-13T12:26:15.422Z,22.96
2022-09-13T12:29:20.749Z,23.01
2022-09-13T12:32:23.814Z,22.67
2022-09-13T12:35:25.814Z,22.56
2022-09-13T12:38:38.909Z,22.64
2022-09-13T12:41:59.406Z,22.67
2022-09-13T12:45:24.226Z,22.67
2022-09-13T12:48:49.390Z,22.48
2022-09-13T12:52:08.906Z,22.39
2022-09-13T12:55:45.977Z,22.32
2022-09-13T12:59:09.768Z,22.36
2022-09-13T13:02:26.914Z,22.43
2022-09-13T13:05:40.412Z,22.43
2022-09-13T13:08:53.911Z,22.22
2022-09-13T13:11:58.452Z,22.13
2022-09-13T13:15:05.870Z,22.16
2022-09-13T13:18:48.999Z,22.14
2022-09-13T13:21:51.192Z,22.09
2022-09-13T13:24:55.402Z,21.98
2022-09-13T13:27:58.808Z,22.10
2022-09-13T13:31:01.427Z,22.26
2022-09-13T13:34:23.380Z,22.35
2022-09-13T13:37:33.382Z,22.54
2022-09-13T13:40:36.786Z,22.57
2022-09-13T13:43:39.113Z,22.65
2022-09-13T13:46:41.903Z,22.71
2022-09-13T13:50:04.121Z,22.71
2022-09-13T13:53:22.206Z,22.66
2022-09-13T13:56:48.520Z,22.63
2022-09-13T13:59:54.697Z,22.73
2022-09-13T14:03:02.994Z,22.69
2022-09-13T14:06:31.050Z,22.69
2022-09-13T14:10:10.682Z,22.81
2022-09-13T14:13:36.189Z,22.63
2022-09-13T14:17:09.891Z,22.69
2022-09-13T14:20:17.006Z,22.90
2022-09-13T14:23:19.463Z,22.78
2022-09-13T14:26:21.801Z,22.79
2022-09-13T14:29:26.181Z,22.81
2022-09-13T14:32:38.364Z,22.77
2022-09-13T14:35:41.179Z,22.55
2022-09-13T14:38:58.269Z,22.60
2022-09-13T14:42:13.466Z,22.65
2022-09-13T14:45:22.428Z,22.71
2022-09-13T14:48:32.663Z,22.72
2022-09-13T14:51:56.417Z,22.75
2022-09-13T14:55:04.264Z,22.77
2022-09-13T14:58:33.670Z,22.70
2022-09-13T15:01:36.043Z,22.76
2022-09-13T15:04:48.501Z,22.74
2022-09-13T15:07:50.883Z,22.71
2022-09-13T15:10:57.162Z,22.62
2022-09-13T15:14:28.476Z,22.66
2022-09-13T15:17:30.796Z,22.61
2022-09-13T15:20:48.913Z,22.44
2022-09-13T15:23:51.348Z,22.45
2022-09-13T15:27:16.289Z,22.29
2022-09-13T15:30:39.214Z,22.19
2022-09-13T15:33:41.288Z,22.03
2022-09-13T15:36:48.714Z,21.93
2022-09-13T15:40:22.291Z,21.85
2022-09-13T15:43:25.189Z,21.81
2022-09-13T15:46:27.675Z,21.82
2022-09-13T15:49:31.322Z,21.78
2022-09-13T15:52:33.398Z,21.74
2022-09-13T15:55:39.540Z,21.72
2022-09-13T15:58:41.681Z,21.66
2022-09-13T16:01:45.572Z,21.60
2022-09-13T16:04:48.471Z,21.52
2022-09-13T16:07:50.522Z,21.48
2022-09-13T16:10:52.947Z,21.46
2022-09-13T16:13:55.022Z,21.40
2022-09-13T16:17:06.819Z,21.32
2022-09-13T16:20:13.277Z,21.26
2022-09-13T16:23:15.626Z,21.16
2022-09-13T16:26:17.975Z,21.14
2022-09-13T16:29:20.246Z,21.09
2022-09-13T16:32:22.658Z,21.08
2022-09-13T16:35:29.239Z,20.98
2022-09-13T16:38:32.010Z,20.98
2022-09-13T16:41:34.046Z,20.87
2022-09-13T16:44:36.463Z,20.68
2022-09-13T16:47:39.131Z,20.68
2022-09-13T16:50:41.987Z,20.68
2022-09-13T16:53:44.098Z,20.65
2022-09-13T16:56:46.415Z,20.55
2022-09-13T16:59:48.589Z,20.52
2022-09-13T17:02:51.506Z,20.50
2022-09-13T17:06:00.777Z,20.50
2022-09-13T17:09:06.461Z,20.46
2022-09-13T17:12:10.671Z,20.41
2022-09-13T17:15:13.243Z,20.31
2022-09-13T17:18:15.471Z,20.18
2022-09-13T17:21:18.519Z,20.11
2022-09-13T17:24:20.639Z,20.01
2022-09-13T17:27:22.946Z,19.93
2022-09-13T17:30:25.770Z,19.77
2022-09-13T17:33:28.324Z,19.66
2022-09-13T17:36:30.424Z,19.57
2022-09-13T17:39:32.797Z,19.40
2022-09-13T17:42:35.020Z,19.41
2022-09-13T17:45:37.367Z,19.40
2022-09-13T17:48:40.059Z,19.33
2022-09-13T17:51:42.470Z,19.24
2022-09-13T17:54:46.438Z,19.18
2022-09-13T17:57:49.773Z,19.08
2022-09-13T18:00:51.847Z,19.04
2022-09-13T18:03:55.605Z,19.00
2022-09-13T18:06:57.670Z,18.86
2022-09-13T18:09:59.979Z,18.82
2022-09-13T18:13:02.061Z,18.80
2022-09-13T18:16:08.718Z,18.83
2022-09-13T18:19:11.603Z,18.83
2022-09-13T18:22:14.186Z,18.82
2022-09-13T18:25:16.980Z,18.78
2022-09-13T18:28:19.486Z,18.73
2022-09-13T18:31:22.404Z,18.63
2022-09-13T18:34:27.727Z,18.62
2022-09-13T18:37:31.211Z,18.57
2022-09-13T18:40:33.750Z,18.59
2022-09-13T18:43:37.346Z,18.55
2022-09-13T18:46:40.537Z,18.48
2022-09-13T18:49:42.729Z,18.40
2022-09-13T18:52:45.057Z,18.44
2022-09-13T18:55:47.166Z,18.46
2022-09-13T18:58:49.827Z,18.50
2022-09-13T19:01:52.059Z,18.48
2022-09-13T19:04:54.470Z,18.46
2022-09-13T19:07:57.192Z,18.46
2022-09-13T19:11:00.143Z,18.48
2022-09-13T19:14:02.868Z,18.47
2022-09-13T19:17:05.286Z,18.52
2022-09-13T19:20:08.147Z,18.52
2022-09-13T19:23:10.558Z,18.47
2022-09-13T19:26:24.932Z,18.50
2022-09-13T19:29:27.463Z,18.46
2022-09-13T19:32:29.550Z,18.38
2022-09-13T19:35:35.028Z,18.37
2022-09-13T19:38:37.489Z,18.28
2022-09-13T19:41:40.728Z,18.23
2022-09-13T19:44:42.838Z,18.22
2022-09-13T19:48:34.843Z,18.09
2022-09-13T19:51:11.724Z,18.02
2022-09-13T19:54:15.171Z,18.00
2022-09-13T19:57:17.379Z,17.96
2022-09-13T20:00:19.718Z,17.92
2022-09-13T20:03:22.066Z,17.94
2022-09-13T20:06:25.962Z,17.87
2022-09-13T20:09:28.461Z,17.80
2022-09-13T20:12:30.528Z,17.83
2022-09-13T20:15:33.420Z,17.83
2022-09-13T20:18:35.500Z,17.82
2022-09-13T20:21:37.959Z,17.79
2022-09-13T20:24:40.059Z,17.78
2022-09-13T20:27:42.399Z,17.77
2022-09-13T20:30:52.635Z,17.78
2022-09-13T20:33:56.435Z,17.80
2022-09-13T20:36:58.491Z,17.65
2022-09-13T20:40:02.230Z,17.64
2022-09-13T20:43:04.688Z,17.54
2022-09-13T20:46:09.879Z,17.59
2022-09-13T20:49:12.088Z,17.57
2022-09-13T20:52:14.455Z,17.62
2022-09-13T20:55:16.655Z,17.60
2022-09-13T20:58:21.105Z,17.60
2022-09-13T21:01:23.557Z,17.72
2022-09-13T21:04:26.185Z,17.75
2022-09-13T21:07:46.997Z,17.75
2022-09-13T21:11:03.460Z,17.78
2022-09-13T21:14:11.345Z,17.82
2022-09-13T21:17:13.786Z,17.83
2022-09-13T21:20:15.967Z,17.88
2022-09-13T21:23:18.594Z,17.93
2022-09-13T21:26:22.882Z,17.92
2022-09-13T21:29:25.267Z,17.90
2022-09-13T21:32:27.320Z,17.94
2022-09-13T21:35:29.640Z,17.89
2022-09-13T21:38:33.672Z,17.77
2022-09-13T21:41:36.585Z,17.75
2022-09-13T21:44:38.692Z,17.71
2022-09-13T21:47:41.027Z,17.70
2022-09-13T21:50:43.077Z,17.64
2022-09-13T21:53:47.375Z,17.70
2022-09-13T21:56:52.299Z,17.59
2022-09-13T21:59:54.618Z,17.52
2022-09-13T22:02:56.675Z,17.45
2022-09-13T22:05:58.986Z,17.48
2022-09-13T22:09:04.282Z,17.49
2022-09-13T22:12:06.767Z,17.49
2022-09-13T22:15:09.345Z,17.51
2022-09-13T22:18:11.676Z,17.49
2022-09-13T22:21:17.113Z,17.44
2022-09-13T22:24:22.618Z,17.43
2022-09-13T22:27:24.698Z,17.41
2022-09-13T22:30:27.082Z,17.37
2022-09-13T22:33:29.142Z,17.28
2022-09-13T22:36:31.659Z,17.24
2022-09-13T22:39:33.733Z,17.12
2022-09-13T22:42:36.042Z,17.04
2022-09-13T22:45:38.876Z,17.00
2022-09-13T22:48:41.858Z,16.94
2022-09-13T22:51:45.172Z,16.85
2022-09-13T22:54:50.741Z,16.77
2022-09-13T22:57:53.173Z,16.68
2022-09-13T23:01:03.421Z,16.59
2022-09-13T23:04:07.071Z,16.48
2022-09-13T23:07:09.955Z,16.39
2022-09-13T23:10:12.029Z,16.38
2022-09-13T23:13:14.338Z,16.35
2022-09-13T23:16:19.965Z,16.32
2022-09-13T23:19:23.094Z,16.27
2022-09-13T23:22:25.134Z,16.24
2022-09-13T23:25:27.589Z,16.23
2022-09-13T23:28:30.210Z,16.21
2022-09-13T23:31:35.833Z,16.18
2022-09-13T23:34:37.931Z,16.11
2022-09-13T23:37:40.258Z,16.02
2022-09-13T23:40:42.334Z,16.02
2022-09-13T23:43:45.323Z,15.98
2022-09-13T23:46:47.448Z,15.92
2022-09-13T23:49:49.845Z,15.81
2022-09-13T23:52:51.891Z,15.75
2022-09-13T23:55:54.402Z,15.74
2022-09-13T23:58:58.533Z,15.65
